createdAt,value
2023-07-03T00:00:40.380Z,44.57
2023-07-03T00:03:07.908Z,44.75
2023-07-03T00:05:36.456Z,44.48
2023-07-03T00:08:03.970Z,44.35
2023-07-03T00:10:31.427Z,44.57
2023-07-03T00:12:58.918Z,44.18
2023-07-03T00:15:26.382Z,44.83
2023-07-03T00:17:53.926Z,44.32
2023-07-03T00:20:21.467Z,44.28
2023-07-03T00:22:49.587Z,44.57
2023-07-03T00:25:17.160Z,44.51
2023-07-03T00:27:45.754Z,44.45
2023-07-03T00:30:14.488Z,45.23
2023-07-03T00:32:42.099Z,44.45
2023-07-03T00:35:10.072Z,44.68
2023-07-03T00:37:37.543Z,44.83
2023-07-03T00:40:08.386Z,45.16
2023-07-03T00:42:36.148Z,44.99
2023-07-03T00:45:10.058Z,45.09
2023-07-03T00:47:39.609Z,45.11
2023-07-03T00:50:08.088Z,45.21
2023-07-03T00:52:35.829Z,44.80
2023-07-03T00:55:04.490Z,44.87
2023-07-03T00:57:32.525Z,45.36
2023-07-03T01:00:01.082Z,44.92
2023-07-03T01:03:03.704Z,45.17
2023-07-03T01:05:41.557Z,45.23
2023-07-03T01:08:13.107Z,45.36
2023-07-03T01:10:42.658Z,45.09
2023-07-03T01:13:18.757Z,45.07
2023-07-03T01:15:48.202Z,45.41
2023-07-03T01:18:16.902Z,45.82
2023-07-03T01:21:23.755Z,45.20
2023-07-03T01:24:18.772Z,45.80
2023-07-03T01:26:47.943Z,45.66
2023-07-03T01:29:17.552Z,46.44
2023-07-03T01:31:46.150Z,45.89
2023-07-03T01:34:14.498Z,45.72
2023-07-03T01:36:43.284Z,46.62
2023-07-03T01:39:11.309Z,46.82
2023-07-03T01:41:39.843Z,46.34
2023-07-03T01:44:07.901Z,47.31
2023-07-03T01:46:36.358Z,47.05
2023-07-03T01:49:04.002Z,46.80
2023-07-03T01:52:23.109Z,47.54
2023-07-03T01:55:21.837Z,46.48
2023-07-03T01:58:33.972Z,47.10
2023-07-03T02:01:23.077Z,46.81
2023-07-03T02:04:12.067Z,47.10
2023-07-03T02:06:45.860Z,47.73
2023-07-03T04:43:53.015Z,50.57
2023-07-03T04:46:25.217Z,50.43
2023-07-03T04:49:00.706Z,50.19
2023-07-03T04:51:32.639Z,49.58
2023-07-03T04:54:02.108Z,49.53
2023-07-03T04:56:33.630Z,49.50
2023-07-03T04:59:01.221Z,49.42
2023-07-03T05:11:17.996Z,49.07
2023-07-03T05:13:45.727Z,48.90
2023-07-03T05:16:13.328Z,48.34
2023-07-03T05:18:41.525Z,48.03
2023-07-03T05:21:09.477Z,47.79
2023-07-03T05:23:37.403Z,47.45
2023-07-03T05:26:05.339Z,47.75
2023-07-03T05:28:33.436Z,47.47
2023-07-03T05:31:01.886Z,47.22
2023-07-03T05:33:31.768Z,47.09
2023-07-03T05:36:03.761Z,46.93
2023-07-03T05:38:32.097Z,47.24
2023-07-03T05:40:59.622Z,47.15
2023-07-03T05:43:28.136Z,47.15
2023-07-03T05:45:55.660Z,47.39
2023-07-03T05:48:26.013Z,47.38
2023-07-03T05:50:53.580Z,47.60
2023-07-03T05:53:22.573Z,47.29
2023-07-03T05:55:59.485Z,47.27
2023-07-03T05:58:28.977Z,47.34
2023-07-03T06:00:57.058Z,47.47
2023-07-03T06:03:26.415Z,47.28
2023-07-03T06:05:54.356Z,47.82
2023-07-03T06:08:22.162Z,48.02
2023-07-03T06:10:49.631Z,48.07
2023-07-03T06:13:17.877Z,48.00
2023-07-03T06:15:45.733Z,47.67
2023-07-03T06:18:13.469Z,47.59
2023-07-03T06:20:41.017Z,47.77
2023-07-03T06:23:08.669Z,47.62
2023-07-03T06:25:36.249Z,48.59
2023-07-03T06:28:04.251Z,47.86
2023-07-03T06:30:31.742Z,48.37
2023-07-03T06:32:59.292Z,48.05
2023-07-03T06:35:27.255Z,48.48
2023-07-03T06:37:57.338Z,48.18
2023-07-03T06:40:25.010Z,48.79
2023-07-03T06:42:54.475Z,49.24
2023-07-03T06:45:22.017Z,49.27
2023-07-03T06:47:49.585Z,49.86
2023-07-03T06:50:17.658Z,49.80
2023-07-03T06:52:48.670Z,50.18
2023-07-03T06:55:16.317Z,50.36
2023-07-03T06:57:43.868Z,50.21
2023-07-03T07:00:12.506Z,49.73
2023-07-03T07:02:40.176Z,50.18
2023-07-03T07:05:08.578Z,50.16
2023-07-03T07:07:36.173Z,50.11
2023-07-03T07:10:04.543Z,50.50
2023-07-03T07:12:32.080Z,49.97
2023-07-03T07:14:59.562Z,50.17
2023-07-03T07:17:35.591Z,50.43
2023-07-03T07:20:14.156Z,50.25
2023-07-03T07:22:41.623Z,50.05
2023-07-03T07:25:09.723Z,50.75
2023-07-03T07:27:37.226Z,50.05
2023-07-03T07:30:05.568Z,49.86
2023-07-03T07:32:33.048Z,47.73
2023-07-03T07:35:00.558Z,46.39
2023-07-03T07:37:28.001Z,46.87
2023-07-03T07:39:55.446Z,46.45
2023-07-03T07:42:22.953Z,45.73
2023-07-03T07:44:50.559Z,45.17
2023-07-03T07:47:18.045Z,45.16
2023-07-03T07:49:46.127Z,45.28
2023-07-03T07:52:13.686Z,45.37
2023-07-03T07:54:41.178Z,45.83
2023-07-03T07:57:08.975Z,46.19
2023-07-03T07:59:37.456Z,46.34
2023-07-03T08:02:05.404Z,46.33
2023-07-03T08:04:34.539Z,46.25
2023-07-03T08:07:02.215Z,46.06
2023-07-03T08:09:29.743Z,45.48
2023-07-03T08:11:57.306Z,45.77
2023-07-03T08:14:24.862Z,45.20
2023-07-03T08:16:52.578Z,45.25
2023-07-03T08:19:20.271Z,45.33
2023-07-03T08:21:47.781Z,44.19
2023-07-03T08:24:15.508Z,44.64
2023-07-03T08:26:50.248Z,44.37
2023-07-03T08:29:18.151Z,44.90
2023-07-03T08:31:45.752Z,44.01
2023-07-03T08:34:13.292Z,43.93
2023-07-03T08:39:11.109Z,43.35
2023-07-03T08:41:56.224Z,43.05
2023-07-03T08:44:23.889Z,42.12
2023-07-03T08:47:09.666Z,42.25
2023-07-03T08:49:39.318Z,42.23
2023-07-03T08:52:08.575Z,42.26
2023-07-03T08:54:38.898Z,42.91
2023-07-03T08:57:12.006Z,42.80
2023-07-03T08:59:39.990Z,42.51
2023-07-03T09:02:22.257Z,42.74
2023-07-03T09:05:38.558Z,43.06
2023-07-03T09:08:15.134Z,43.32
2023-07-03T09:10:51.034Z,40.84
2023-07-03T09:13:44.531Z,41.20
2023-07-03T09:16:22.697Z,40.41
2023-07-03T09:19:07.632Z,40.86
2023-07-03T09:21:36.950Z,40.08
2023-07-03T09:24:27.617Z,39.86
2023-07-03T09:27:24.807Z,40.86
2023-07-03T09:29:53.205Z,40.52
2023-07-03T09:32:31.718Z,40.94
2023-07-03T09:35:21.308Z,41.09
2023-07-03T09:37:59.536Z,41.53
2023-07-03T09:40:38.866Z,40.97
2023-07-03T09:43:27.198Z,41.07
2023-07-03T09:46:17.778Z,40.55
2023-07-03T09:48:45.933Z,41.00
2023-07-03T09:51:30.322Z,40.48
2023-07-03T09:54:06.996Z,40.39
2023-07-03T09:56:35.018Z,40.46
2023-07-03T09:59:06.897Z,39.56
2023-07-03T10:07:09.003Z,39.90
2023-07-03T10:12:45.569Z,39.95
2023-07-03T10:15:30.224Z,39.97
2023-07-03T10:18:15.210Z,39.27
2023-07-03T10:20:45.385Z,39.72
2023-07-03T10:23:29.077Z,39.23
2023-07-03T10:26:39.524Z,39.38
2023-07-03T10:29:27.591Z,39.44
2023-07-03T10:32:17.533Z,38.94
2023-07-03T10:35:29.487Z,38.94
2023-07-03T10:38:12.728Z,39.10
2023-07-03T10:40:56.959Z,38.69
2023-07-03T10:43:34.024Z,38.49
2023-07-03T10:46:03.477Z,38.98
2023-07-03T10:48:34.641Z,38.33
2023-07-03T10:51:48.226Z,38.55
2023-07-03T10:54:31.169Z,38.34
2023-07-03T10:57:06.625Z,38.52
2023-07-03T10:59:43.784Z,38.88
2023-07-03T11:02:42.725Z,38.03
2023-07-03T11:05:36.072Z,37.85
2023-07-03T11:08:55.864Z,38.38
2023-07-03T11:12:34.874Z,38.01
2023-07-03T11:16:03.806Z,37.74
2023-07-03T11:28:51.592Z,36.56
2023-07-03T11:31:21.241Z,37.18
2023-07-03T11:44:50.049Z,36.16
2023-07-03T11:47:32.267Z,36.35
2023-07-03T11:50:06.178Z,36.02
2023-07-03T11:52:42.477Z,35.26
2023-07-03T11:55:20.170Z,36.18
2023-07-03T11:58:14.517Z,35.96
2023-07-03T12:00:45.619Z,35.47
2023-07-03T12:03:15.685Z,36.14
2023-07-03T12:05:49.324Z,35.85
2023-07-03T12:08:19.626Z,36.83
2023-07-03T12:10:56.225Z,35.25
2023-07-03T12:13:47.655Z,34.47
2023-07-03T12:16:26.044Z,34.34
2023-07-03T12:19:11.551Z,35.01
2023-07-03T12:21:47.629Z,34.94
2023-07-03T12:24:33.448Z,37.51
2023-07-03T12:27:08.185Z,34.28
2023-07-03T12:29:49.369Z,34.10
2023-07-03T12:32:49.488Z,33.91
2023-07-03T12:35:28.485Z,34.08
2023-07-03T12:38:06.703Z,33.96
2023-07-03T12:40:41.873Z,35.80
2023-07-03T12:43:10.788Z,34.09
2023-07-03T12:45:38.459Z,34.34
2023-07-03T12:48:24.356Z,36.11
2023-07-03T12:50:57.857Z,36.61
2023-07-03T12:53:35.081Z,34.78
2023-07-03T12:56:10.522Z,34.01
2023-07-03T12:58:39.004Z,34.91
2023-07-03T13:01:09.300Z,35.13
2023-07-03T13:03:43.064Z,35.47
2023-07-03T13:06:29.493Z,35.32
2023-07-03T13:08:59.852Z,35.89
2023-07-03T13:11:46.097Z,35.31
2023-07-03T13:14:29.394Z,34.71
2023-07-03T13:17:02.487Z,35.28
2023-07-03T13:19:37.436Z,33.79
2023-07-03T13:22:19.509Z,34.57
2023-07-03T13:24:52.073Z,35.76
2023-07-03T13:27:28.245Z,35.71
2023-07-03T13:30:36.782Z,36.08
2023-07-03T13:33:15.168Z,36.49
2023-07-03T13:35:49.691Z,36.35
2023-07-03T13:38:27.726Z,35.43
2023-07-03T13:41:00.347Z,34.88
2023-07-03T13:43:33.652Z,36.08
2023-07-03T13:46:02.124Z,35.82
2023-07-03T13:48:30.654Z,36.53
2023-07-03T13:50:58.509Z,37.25
2023-07-03T13:53:27.748Z,36.14
2023-07-03T13:55:55.316Z,36.63
2023-07-03T13:58:22.879Z,36.92
2023-07-03T14:00:50.532Z,36.50
2023-07-03T14:03:18.294Z,37.14
2023-07-03T14:05:45.968Z,37.37
2023-07-03T14:08:13.780Z,37.30
2023-07-03T14:10:41.368Z,37.21
2023-07-03T14:13:11.010Z,36.81
2023-07-03T14:15:39.547Z,36.89
2023-07-03T14:18:07.188Z,37.57
2023-07-03T14:20:34.781Z,38.00
2023-07-03T14:23:04.508Z,37.40
2023-07-03T14:25:32.698Z,37.87
2023-07-03T14:28:01.396Z,38.37
2023-07-03T14:30:28.948Z,38.47
2023-07-03T14:32:56.763Z,38.35
2023-07-03T14:35:25.385Z,39.28
2023-07-03T14:37:53.234Z,38.52
2023-07-03T14:40:21.020Z,38.27
2023-07-03T14:42:48.773Z,38.98
2023-07-03T14:45:16.804Z,39.07
2023-07-03T14:47:44.406Z,38.20
2023-07-03T14:50:13.307Z,37.59
2023-07-03T14:52:49.265Z,37.45
2023-07-03T14:55:19.049Z,37.79
2023-07-03T14:57:46.990Z,37.67
2023-07-03T15:00:15.745Z,37.56
2023-07-03T15:02:47.235Z,36.40
2023-07-03T15:05:16.356Z,35.13
2023-07-03T15:07:49.945Z,34.57
2023-07-03T15:10:18.859Z,33.77
2023-07-03T15:12:47.233Z,33.40
2023-07-03T15:15:15.337Z,33.28
2023-07-03T15:17:43.107Z,32.73
2023-07-03T15:20:11.862Z,32.55
2023-07-03T15:22:39.348Z,31.42
2023-07-03T15:25:07.761Z,32.02
2023-07-03T15:27:35.373Z,32.54
2023-07-03T15:30:03.935Z,31.97
2023-07-03T15:32:32.818Z,31.01
2023-07-03T15:35:00.367Z,31.17
2023-07-03T15:37:27.975Z,31.21
2023-07-03T15:39:55.958Z,31.60
2023-07-03T15:42:24.307Z,30.84
2023-07-03T15:44:59.283Z,30.50
2023-07-03T15:47:27.844Z,30.84
2023-07-03T15:49:58.524Z,31.01
2023-07-03T15:52:26.863Z,30.88
2023-07-03T15:54:54.724Z,31.23
2023-07-03T15:57:22.944Z,31.44
2023-07-03T15:59:50.792Z,31.12
2023-07-03T16:02:18.367Z,30.50
2023-07-03T16:04:45.981Z,31.23
2023-07-03T16:07:13.483Z,31.38
2023-07-03T16:09:40.953Z,31.42
2023-07-03T16:12:08.631Z,30.89
2023-07-03T16:14:36.121Z,30.48
2023-07-03T16:17:03.678Z,30.82
2023-07-03T16:19:32.009Z,30.45
2023-07-03T16:21:59.526Z,30.92
2023-07-03T16:24:26.989Z,31.11
2023-07-03T16:26:54.460Z,30.51
2023-07-03T16:29:21.960Z,30.58
2023-07-03T16:31:49.619Z,30.27
2023-07-03T16:34:17.162Z,31.06
2023-07-03T16:36:44.608Z,30.82
2023-07-03T16:39:12.480Z,31.90
2023-07-03T16:41:40.935Z,32.44
2023-07-03T16:44:08.436Z,32.52
2023-07-03T16:46:39.580Z,33.25
2023-07-03T16:49:08.087Z,32.82
2023-07-03T16:51:35.583Z,33.47
2023-07-03T16:54:03.505Z,34.27
2023-07-03T16:56:31.115Z,34.63
2023-07-03T16:58:59.649Z,34.21
2023-07-03T17:01:30.877Z,33.92
2023-07-03T17:03:59.368Z,34.28
2023-07-03T17:06:36.406Z,34.20
2023-07-03T17:09:05.121Z,33.43
2023-07-03T17:11:32.838Z,33.03
2023-07-03T17:14:01.214Z,34.05
2023-07-03T17:16:29.988Z,33.99
2023-07-03T17:18:57.954Z,34.08
2023-07-03T17:21:26.556Z,33.92
2023-07-03T17:24:06.285Z,34.32
2023-07-03T17:26:34.424Z,34.29
2023-07-03T17:29:04.841Z,34.95
2023-07-03T17:31:32.937Z,34.57
2023-07-03T17:34:01.272Z,34.57
2023-07-03T17:36:29.428Z,35.16
2023-07-03T17:38:56.992Z,35.47
2023-07-03T17:41:24.965Z,35.24
2023-07-03T17:43:53.112Z,35.26
2023-07-03T17:46:20.627Z,35.68
2023-07-03T17:48:48.503Z,36.11
2023-07-03T17:51:16.102Z,36.40
2023-07-03T17:53:45.739Z,36.42
2023-07-03T17:56:13.993Z,36.50
2023-07-03T17:58:43.923Z,36.48
2023-07-03T18:01:13.104Z,36.55
2023-07-03T18:03:41.578Z,36.58
2023-07-03T18:06:13.652Z,36.79
2023-07-03T18:08:41.640Z,36.28
2023-07-03T18:11:09.265Z,37.03
2023-07-03T18:13:37.665Z,37.43
2023-07-03T18:16:05.499Z,37.95
2023-07-03T18:18:33.183Z,37.98
2023-07-03T18:21:01.110Z,38.36
2023-07-03T18:23:28.784Z,38.24
2023-07-03T18:25:56.813Z,38.22
2023-07-03T18:28:25.205Z,38.43
2023-07-03T18:31:04.450Z,39.00
2023-07-03T18:33:34.908Z,39.47
2023-07-03T18:36:03.408Z,39.78
2023-07-03T18:38:31.745Z,39.88
2023-07-03T18:41:06.864Z,39.91
2023-07-03T18:43:34.642Z,40.03
2023-07-03T18:46:02.222Z,40.23
2023-07-03T18:48:29.848Z,40.42
2023-07-03T18:50:57.375Z,40.46
2023-07-03T18:53:25.411Z,40.58
2023-07-03T18:55:54.202Z,41.04
2023-07-03T18:58:21.977Z,40.73
2023-07-03T19:00:50.105Z,41.09
2023-07-03T19:03:17.914Z,41.23
2023-07-03T19:06:09.829Z,41.45
2023-07-03T19:08:37.913Z,41.44
2023-07-03T19:11:07.775Z,41.17
2023-07-03T19:13:35.800Z,41.52
2023-07-03T19:16:03.514Z,41.93
2023-07-03T19:18:31.278Z,41.18
2023-07-03T19:20:58.732Z,42.03
2023-07-03T19:23:26.670Z,42.00
2023-07-03T19:26:00.126Z,41.78
2023-07-03T19:28:27.990Z,42.23
2023-07-03T19:31:00.675Z,42.53
2023-07-03T19:33:31.002Z,42.84
2023-07-03T19:36:00.557Z,42.81
2023-07-03T19:38:28.635Z,43.16
2023-07-03T19:40:57.055Z,43.58
2023-07-03T19:43:24.510Z,43.35
2023-07-03T19:45:52.078Z,43.83
2023-07-03T19:48:19.731Z,43.71
2023-07-03T19:50:49.187Z,43.93
2023-07-03T19:53:17.708Z,43.92
2023-07-03T19:55:45.739Z,44.33
2023-07-03T19:58:13.585Z,44.42
2023-07-03T20:00:41.433Z,44.77
2023-07-03T20:03:11.500Z,45.22
2023-07-03T20:05:42.828Z,45.26
2023-07-03T20:08:10.297Z,44.66
2023-07-03T20:10:39.005Z,45.16
2023-07-03T20:13:06.605Z,45.49
2023-07-03T20:15:34.105Z,45.28
2023-07-03T20:18:01.764Z,45.71
2023-07-03T20:20:29.625Z,45.95
2023-07-03T20:22:58.176Z,45.91
2023-07-03T20:25:25.901Z,45.46
2023-07-03T20:27:54.397Z,45.20
2023-07-03T20:30:22.447Z,45.81
2023-07-03T20:32:50.099Z,45.90
2023-07-03T20:35:19.209Z,46.13
2023-07-03T20:37:46.859Z,46.19
2023-07-03T20:40:14.514Z,46.12
2023-07-03T20:42:42.367Z,45.87
2023-07-03T20:45:11.417Z,46.60
2023-07-03T20:47:39.045Z,46.87
2023-07-03T20:50:07.949Z,46.39
2023-07-03T20:52:41.059Z,46.53
2023-07-03T20:55:36.663Z,46.19
2023-07-03T20:58:04.385Z,46.20
2023-07-03T21:00:32.014Z,46.57
2023-07-03T21:02:59.675Z,46.89
2023-07-03T21:05:27.989Z,47.02
2023-07-03T21:07:56.395Z,46.70
2023-07-03T21:10:23.840Z,46.89
2023-07-03T21:12:51.322Z,46.59
2023-07-03T21:15:20.059Z,46.80
2023-07-03T21:17:48.237Z,46.97
2023-07-03T21:20:15.842Z,46.54
2023-07-03T21:22:43.305Z,46.87
2023-07-03T21:25:12.027Z,46.15
2023-07-03T21:27:39.470Z,46.84
2023-07-03T21:30:08.371Z,46.69
2023-07-03T21:32:36.724Z,46.44
2023-07-03T21:35:04.469Z,47.19
2023-07-03T21:37:32.829Z,47.38
2023-07-03T21:40:00.398Z,47.93
2023-07-03T21:42:27.892Z,48.59
2023-07-03T21:44:55.373Z,48.51
2023-07-03T21:47:22.929Z,48.47
2023-07-03T21:49:50.617Z,48.52
2023-07-03T21:52:18.074Z,49.16
2023-07-03T21:54:48.833Z,48.96
2023-07-03T21:57:19.373Z,48.91
2023-07-03T21:59:50.394Z,49.67
2023-07-03T22:02:17.933Z,49.20
2023-07-03T22:04:45.600Z,48.99
2023-07-03T22:07:13.786Z,49.03
2023-07-03T22:09:41.302Z,49.30
2023-07-03T22:12:12.965Z,48.98
2023-07-03T22:14:40.774Z,49.71
2023-07-03T22:17:08.400Z,49.75
2023-07-03T22:19:39.794Z,49.81
2023-07-03T22:22:08.441Z,50.17
2023-07-03T22:24:35.961Z,50.14
2023-07-03T22:27:07.184Z,50.40
2023-07-03T22:29:36.795Z,51.01
2023-07-03T22:32:04.842Z,50.43
2023-07-03T22:34:32.360Z,50.64
2023-07-03T22:36:59.845Z,51.30
2023-07-03T22:39:27.333Z,51.56
2023-07-03T22:41:54.833Z,52.36
2023-07-03T22:44:22.332Z,52.36
2023-07-03T22:46:53.575Z,52.24
2023-07-03T22:49:25.517Z,52.62
2023-07-03T22:51:53.681Z,52.68
2023-07-03T22:54:22.973Z,53.22
2023-07-03T22:56:50.728Z,53.22
2023-07-03T22:59:18.329Z,53.64
2023-07-03T23:01:49.581Z,54.37
2023-07-03T23:04:17.905Z,54.47
2023-07-03T23:06:47.234Z,55.71
2023-07-03T23:09:17.958Z,55.43
2023-07-03T23:11:45.644Z,56.31
2023-07-03T23:14:16.782Z,55.66
2023-07-03T23:16:47.531Z,56.52
2023-07-03T23:19:17.896Z,56.92
2023-07-03T23:21:53.084Z,57.32
2023-07-03T23:24:21.955Z,57.54
2023-07-03T23:26:53.769Z,57.55
2023-07-03T23:29:22.315Z,57.59
2023-07-03T23:31:51.019Z,57.68
2023-07-03T23:34:18.824Z,57.22
2023-07-03T23:36:49.661Z,57.64
2023-07-03T23:39:19.260Z,57.29
2023-07-03T23:41:47.233Z,57.33
2023-07-03T23:44:15.914Z,57.51
2023-07-03T23:46:43.492Z,57.35
2023-07-03T23:49:11.324Z,57.48
2023-07-03T23:51:38.821Z,57.11
2023-07-03T23:54:07.080Z,56.94
2023-07-03T23:56:35.479Z,56.72
2023-07-03T23:59:05.053Z,57.00
